createdAt,value
2022-08-23T00:00:51.834Z,67.90
2022-08-23T00:02:01.632Z,67.90
2022-08-23T00:03:04.714Z,67.90
2022-08-23T00:04:15.608Z,68.00
2022-08-23T00:05:23.539Z,68.10
2022-08-23T00:06:26.324Z,68.00
2022-08-23T00:07:29.895Z,68.30
2022-08-23T00:08:32.690Z,68.30
2022-08-23T00:09:36.454Z,68.10
2022-08-23T00:10:39.286Z,68.10
2022-08-23T00:11:47.924Z,68.00
2022-08-23T00:12:50.534Z,67.90
2022-08-23T00:13:54.340Z,68.00
2022-08-23T00:14:58.425Z,68.20
2022-08-23T00:16:02.837Z,68.00
2022-08-23T00:17:09.211Z,68.00
2022-08-23T00:18:14.432Z,67.90
2022-08-23T00:19:18.997Z,67.90
2022-08-23T00:20:22.867Z,67.90
2022-08-23T00:21:25.616Z,68.00
2022-08-23T00:22:29.171Z,68.00
2022-08-23T00:23:32.385Z,68.10
2022-08-23T00:24:40.850Z,68.10
2022-08-23T00:25:43.628Z,68.10
2022-08-23T00:26:54.113Z,68.20
2022-08-23T00:27:57.996Z,68.20
2022-08-23T00:29:00.762Z,68.30
2022-08-23T00:30:08.119Z,68.40
2022-08-23T00:31:12.242Z,68.40
2022-08-23T00:32:18.884Z,68.50
2022-08-23T00:33:21.889Z,68.50
2022-08-23T00:34:25.507Z,68.50
2022-08-23T00:35:32.132Z,68.60
2022-08-23T00:36:34.810Z,68.60
2022-08-23T00:37:39.428Z,68.70
2022-08-23T00:38:42.267Z,68.70
2022-08-23T00:39:47.093Z,68.90
2022-08-23T00:40:53.073Z,69.00
2022-08-23T00:42:01.109Z,69.00
2022-08-23T00:43:32.429Z,69.10
2022-08-23T00:44:53.878Z,69.10
2022-08-23T00:46:28.511Z,69.20
2022-08-23T00:47:44.855Z,69.20
2022-08-23T00:48:48.309Z,69.10
2022-08-23T00:49:59.996Z,69.10
2022-08-23T00:51:11.108Z,69.30
2022-08-23T00:52:21.002Z,69.30
2022-08-23T00:53:27.545Z,69.30
2022-08-23T00:54:33.283Z,69.30
2022-08-23T00:55:37.005Z,69.20
2022-08-23T00:56:41.168Z,69.30
2022-08-23T00:57:44.389Z,69.20
2022-08-23T00:58:51.030Z,69.10
2022-08-23T00:59:54.104Z,69.10
2022-08-23T01:01:00.654Z,69.00
2022-08-23T01:02:07.948Z,69.00
2022-08-23T01:03:15.709Z,69.00
2022-08-23T01:04:19.003Z,69.00
2022-08-23T01:05:32.139Z,69.00
2022-08-23T01:06:40.355Z,68.90
2022-08-23T01:07:50.492Z,69.00
2022-08-23T01:09:02.131Z,69.00
2022-08-23T01:10:10.178Z,68.90
2022-08-23T01:11:25.857Z,68.80
2022-08-23T01:12:36.106Z,68.70
2022-08-23T01:13:44.094Z,68.80
2022-08-23T01:14:55.655Z,68.80
2022-08-23T01:16:06.121Z,68.80
2022-08-23T01:17:17.592Z,68.90
2022-08-23T01:18:26.765Z,69.00
2022-08-23T01:19:36.607Z,69.00
2022-08-23T01:20:47.403Z,69.30
2022-08-23T01:21:57.969Z,69.10
2022-08-23T01:23:09.020Z,69.10
2022-08-23T01:24:18.027Z,69.00
2022-08-23T01:25:39.685Z,69.00
2022-08-23T01:26:42.632Z,68.90
2022-08-23T01:27:47.498Z,68.90
2022-08-23T01:28:52.778Z,68.80
2022-08-23T01:29:59.322Z,68.80
2022-08-23T01:31:02.703Z,68.80
2022-08-23T01:32:11.345Z,68.80
2022-08-23T01:33:14.905Z,68.80
2022-08-23T01:34:18.789Z,68.90
2022-08-23T01:35:30.248Z,69.00
2022-08-23T01:36:35.877Z,69.20
2022-08-23T01:37:38.762Z,69.20
2022-08-23T01:38:42.388Z,69.10
2022-08-23T01:39:46.622Z,69.10
2022-08-23T01:40:51.614Z,69.10
2022-08-23T01:41:54.209Z,69.30
2022-08-23T01:42:57.867Z,69.70
2022-08-23T01:44:00.851Z,70.00
2022-08-23T01:45:07.270Z,70.00
2022-08-23T01:46:12.878Z,69.90
2022-08-23T01:47:16.584Z,70.30
2022-08-23T01:48:20.875Z,70.40
2022-08-23T01:49:24.383Z,70.50
2022-08-23T01:50:28.717Z,70.40
2022-08-23T01:51:33.504Z,70.40
2022-08-23T01:52:37.778Z,70.70
2022-08-23T01:53:50.835Z,71.00
2022-08-23T01:54:55.898Z,71.10
2022-08-23T01:56:03.187Z,71.40
2022-08-23T01:57:11.037Z,71.50
2022-08-23T02:00:32.497Z,71.60
2022-08-23T02:01:35.186Z,71.90
2022-08-23T02:02:39.298Z,72.10
2022-08-23T02:03:45.973Z,72.40
2022-08-23T02:04:53.033Z,72.20
2022-08-23T02:05:56.850Z,72.20
2022-08-23T02:06:59.618Z,72.20
2022-08-23T02:08:23.369Z,72.30
2022-08-23T02:09:29.282Z,72.40
2022-08-23T02:10:37.488Z,72.90
2022-08-23T02:11:42.635Z,72.90
2022-08-23T02:12:47.862Z,72.80
2022-08-23T02:13:55.017Z,72.70
2022-08-23T02:15:02.631Z,72.70
2022-08-23T02:16:06.005Z,72.80
2022-08-23T02:17:10.394Z,72.80
2022-08-23T02:18:14.010Z,72.80
2022-08-23T02:19:21.167Z,72.80
2022-08-23T02:20:23.764Z,72.70
2022-08-23T02:21:27.691Z,72.90
2022-08-23T02:22:30.334Z,73.00
2022-08-23T02:23:34.006Z,73.20
2022-08-23T02:24:42.776Z,73.30
2022-08-23T02:25:47.914Z,73.30
2022-08-23T02:26:56.835Z,73.30
2022-08-23T02:28:04.478Z,73.20
2022-08-23T02:29:08.795Z,73.30
2022-08-23T02:30:14.058Z,73.70
2022-08-23T02:31:18.891Z,73.70
2022-08-23T02:32:26.024Z,73.70
2022-08-23T02:33:30.090Z,73.70
2022-08-23T02:34:34.118Z,73.80
2022-08-23T02:35:37.241Z,73.80
2022-08-23T02:36:41.397Z,73.70
2022-08-23T02:37:45.062Z,73.70
2022-08-23T02:38:49.890Z,73.80
2022-08-23T02:39:52.802Z,74.00
2022-08-23T02:41:00.781Z,74.00
2022-08-23T02:42:04.676Z,73.90
2022-08-23T02:43:13.149Z,73.90
2022-08-23T02:44:15.766Z,74.00
2022-08-23T02:45:19.761Z,74.00
2022-08-23T02:46:26.253Z,74.10
2022-08-23T02:47:29.962Z,74.00
2022-08-23T02:48:45.045Z,74.00
2022-08-23T02:49:49.840Z,74.00
2022-08-23T02:50:53.437Z,74.00
2022-08-23T02:51:56.623Z,74.10
2022-08-23T02:53:00.802Z,74.30
2022-08-23T02:54:04.543Z,74.40
2022-08-23T02:55:10.249Z,74.40
2022-08-23T02:56:21.638Z,74.40
2022-08-23T02:57:26.172Z,74.50
2022-08-23T02:58:30.759Z,74.60
2022-08-23T02:59:35.489Z,74.60
2022-08-23T03:00:38.975Z,74.60
2022-08-23T03:01:42.924Z,74.60
2022-08-23T03:02:57.402Z,74.80
2022-08-23T03:04:03.704Z,74.80
2022-08-23T03:05:08.304Z,74.70
2022-08-23T03:06:25.644Z,74.70
2022-08-23T03:07:28.804Z,74.70
2022-08-23T03:08:32.464Z,74.70
2022-08-23T03:09:34.983Z,74.80
2022-08-23T03:10:40.930Z,74.80
2022-08-23T03:11:47.837Z,74.70
2022-08-23T03:12:51.563Z,74.70
2022-08-23T03:13:56.439Z,74.70
2022-08-23T03:15:00.030Z,74.90
2022-08-23T03:16:02.947Z,74.90
2022-08-23T03:17:08.254Z,74.90
2022-08-23T03:18:13.030Z,74.90
2022-08-23T03:19:16.979Z,74.80
2022-08-23T03:20:20.996Z,74.80
2022-08-23T03:21:28.006Z,74.80
2022-08-23T03:22:31.528Z,74.80
2022-08-23T03:23:36.699Z,75.00
2022-08-23T03:24:39.333Z,75.10
2022-08-23T03:25:43.360Z,75.10
2022-08-23T03:27:03.076Z,75.10
2022-08-23T03:28:08.379Z,75.00
2022-08-23T03:29:15.300Z,75.00
2022-08-23T03:30:36.577Z,75.00
2022-08-23T03:32:08.844Z,75.00
2022-08-23T03:33:14.365Z,75.10
2022-08-23T03:34:18.839Z,75.20
2022-08-23T03:35:21.392Z,75.10
2022-08-23T03:36:28.118Z,75.10
2022-08-23T03:37:33.676Z,75.10
2022-08-23T03:38:39.506Z,75.00
2022-08-23T03:39:43.801Z,74.90
2022-08-23T03:40:47.566Z,74.90
2022-08-23T03:41:53.879Z,75.00
2022-08-23T03:42:58.153Z,75.10
2022-08-23T03:44:03.475Z,75.10
2022-08-23T03:45:10.263Z,75.20
2022-08-23T03:46:22.974Z,75.20
2022-08-23T03:47:29.056Z,75.30
2022-08-23T03:48:32.775Z,75.40
2022-08-23T03:49:38.806Z,75.50
2022-08-23T03:50:41.470Z,75.60
2022-08-23T03:51:45.376Z,75.60
2022-08-23T03:52:48.390Z,75.60
2022-08-23T03:53:52.386Z,75.70
2022-08-23T03:54:55.117Z,75.80
2022-08-23T03:55:58.729Z,75.80
2022-08-23T03:57:04.002Z,75.80
2022-08-23T03:58:12.735Z,75.80
2022-08-23T03:59:15.319Z,75.90
2022-08-23T04:00:20.236Z,75.80
2022-08-23T04:01:28.714Z,75.90
2022-08-23T04:02:33.887Z,76.00
2022-08-23T04:03:37.059Z,75.90
2022-08-23T04:04:42.342Z,75.90
2022-08-23T04:05:57.157Z,75.80
2022-08-23T04:07:01.262Z,75.80
2022-08-23T04:08:09.765Z,75.80
2022-08-23T04:09:16.623Z,75.90
2022-08-23T04:10:21.340Z,75.80
2022-08-23T04:11:27.799Z,75.80
2022-08-23T04:12:39.916Z,75.80
2022-08-23T04:13:49.976Z,75.80
2022-08-23T04:14:56.287Z,75.80
2022-08-23T04:15:59.377Z,75.90
2022-08-23T04:17:03.051Z,76.00
2022-08-23T04:18:09.279Z,76.10
2022-08-23T04:19:14.824Z,76.20
2022-08-23T04:20:33.290Z,76.20
2022-08-23T04:21:39.846Z,76.20
2022-08-23T04:22:46.521Z,76.20
2022-08-23T04:23:52.796Z,76.30
2022-08-23T04:24:57.157Z,76.30
2022-08-23T04:26:00.180Z,76.40
2022-08-23T04:27:07.884Z,76.30
2022-08-23T04:28:10.681Z,76.40
2022-08-23T04:29:23.053Z,76.40
2022-08-23T04:30:37.739Z,76.50
2022-08-23T04:31:41.535Z,76.50
2022-08-23T04:32:44.782Z,76.50
2022-08-23T04:33:52.338Z,76.60
2022-08-23T04:34:55.888Z,76.60
2022-08-23T04:35:59.823Z,76.60
2022-08-23T04:37:03.498Z,76.60
2022-08-23T04:38:24.483Z,76.70
2022-08-23T04:39:29.963Z,76.80
2022-08-23T04:40:52.120Z,76.60
2022-08-23T04:42:14.971Z,76.50
2022-08-23T04:43:19.525Z,76.40
2022-08-23T04:44:23.608Z,76.30
2022-08-23T04:45:32.602Z,76.30
2022-08-23T04:46:36.320Z,76.20
2022-08-23T04:47:41.554Z,76.30
2022-08-23T04:48:47.341Z,76.30
2022-08-23T04:49:51.203Z,76.40
2022-08-23T04:50:53.909Z,76.50
2022-08-23T04:52:00.545Z,76.50
2022-08-23T04:53:04.009Z,76.50
2022-08-23T04:54:12.852Z,76.50
2022-08-23T04:55:42.670Z,76.40
2022-08-23T04:56:46.456Z,76.50
2022-08-23T04:57:55.488Z,76.50
2022-08-23T04:59:03.181Z,76.60
2022-08-23T05:00:11.895Z,76.70
2022-08-23T05:01:19.922Z,76.80
2022-08-23T05:02:23.434Z,76.90
2022-08-23T05:03:29.754Z,77.00
2022-08-23T05:04:33.898Z,77.00
2022-08-23T05:05:38.488Z,77.00
2022-08-23T05:06:45.779Z,76.80
2022-08-23T05:07:49.597Z,76.80
2022-08-23T05:08:53.062Z,76.60
2022-08-23T05:10:00.092Z,76.40
2022-08-23T05:11:04.977Z,76.40
2022-08-23T05:12:09.769Z,76.30
2022-08-23T05:13:12.816Z,76.20
2022-08-23T05:14:16.558Z,76.30
2022-08-23T05:15:20.949Z,76.20
2022-08-23T05:16:30.604Z,76.20
2022-08-23T05:17:39.701Z,76.30
2022-08-23T05:18:43.787Z,76.30
2022-08-23T05:19:47.147Z,76.30
2022-08-23T05:20:54.211Z,76.30
2022-08-23T05:21:57.979Z,76.30
2022-08-23T05:23:15.637Z,76.40
2022-08-23T05:24:26.048Z,76.40
2022-08-23T05:25:44.567Z,76.50
2022-08-23T05:26:48.481Z,76.50
2022-08-23T05:27:51.686Z,76.70
2022-08-23T05:28:55.566Z,76.80
2022-08-23T05:30:05.385Z,76.70
2022-08-23T05:31:14.253Z,76.60
2022-08-23T05:32:24.586Z,76.60
2022-08-23T05:33:29.197Z,76.50
2022-08-23T05:34:32.885Z,76.50
2022-08-23T05:35:40.407Z,76.60
2022-08-23T05:36:47.385Z,76.70
2022-08-23T05:38:00.664Z,76.70
2022-08-23T05:39:06.017Z,76.80
2022-08-23T05:40:12.084Z,76.70
2022-08-23T05:41:37.722Z,76.70
2022-08-23T05:42:43.588Z,76.60
2022-08-23T05:43:48.228Z,76.50
2022-08-23T05:44:52.313Z,76.50
2022-08-23T05:46:04.498Z,76.50
2022-08-23T05:47:16.373Z,76.50
2022-08-23T05:48:42.864Z,76.50
2022-08-23T05:49:46.642Z,76.60
2022-08-23T05:50:52.188Z,76.50
2022-08-23T05:51:58.381Z,76.60
2022-08-23T05:53:05.503Z,76.50
2022-08-23T05:54:10.818Z,76.50
2022-08-23T05:55:13.613Z,76.60
2022-08-23T05:56:20.118Z,76.60
2022-08-23T05:57:22.904Z,76.60
2022-08-23T05:58:28.996Z,76.60
2022-08-23T05:59:31.769Z,76.60
2022-08-23T06:00:37.362Z,76.70
2022-08-23T06:01:47.232Z,76.60
2022-08-23T06:02:56.153Z,76.60
2022-08-23T06:04:01.253Z,76.40
2022-08-23T06:05:05.542Z,76.20
2022-08-23T06:06:10.612Z,76.00
2022-08-23T06:07:13.270Z,75.90
2022-08-23T06:08:17.038Z,75.80
2022-08-23T06:09:19.977Z,75.70
2022-08-23T06:10:24.536Z,75.80
2022-08-23T06:11:38.442Z,75.80
2022-08-23T06:12:42.457Z,75.70
2022-08-23T06:13:48.729Z,75.30
2022-08-23T06:14:51.584Z,75.00
2022-08-23T06:15:57.532Z,74.70
2022-08-23T06:17:01.866Z,74.60
2022-08-23T06:18:05.869Z,74.40
2022-08-23T06:19:15.182Z,73.90
2022-08-23T06:20:39.687Z,73.60
2022-08-23T06:21:44.595Z,73.30
2022-08-23T06:22:48.388Z,73.10
2022-08-23T06:23:52.077Z,72.70
2022-08-23T06:24:55.781Z,72.20
2022-08-23T06:26:21.399Z,71.80
2022-08-23T06:27:24.634Z,70.90
2022-08-23T06:28:29.735Z,70.20
2022-08-23T06:29:34.712Z,69.70
2022-08-23T06:30:58.013Z,69.20
2022-08-23T06:32:11.140Z,68.90
2022-08-23T06:33:23.006Z,68.30
2022-08-23T06:35:36.113Z,67.80
2022-08-23T06:36:32.741Z,67.10
2022-08-23T06:37:50.294Z,66.70
2022-08-23T06:39:26.008Z,66.00
2022-08-23T06:40:35.478Z,65.50
2022-08-23T06:42:28.019Z,65.10
2022-08-23T06:43:40.402Z,64.60
2022-08-23T06:44:54.662Z,63.90
2022-08-23T06:46:15.425Z,63.30
2022-08-23T06:47:22.984Z,62.60
2022-08-23T06:48:28.022Z,61.50
2022-08-23T06:49:31.881Z,60.20
2022-08-23T06:50:35.844Z,60.00
2022-08-23T06:52:01.519Z,59.80
2022-08-23T06:53:23.065Z,59.50
2022-08-23T06:54:37.846Z,59.00
2022-08-23T06:56:19.963Z,58.70
2022-08-23T06:57:39.468Z,58.60
2022-08-23T06:59:03.592Z,58.60
2022-08-23T07:00:37.660Z,58.70
2022-08-23T07:01:57.902Z,58.90
2022-08-23T07:03:28.462Z,59.10
2022-08-23T07:05:04.605Z,59.20
2022-08-23T07:06:35.553Z,59.40
2022-08-23T07:07:41.468Z,59.70
2022-08-23T07:08:48.513Z,59.70
2022-08-23T07:09:53.019Z,59.80
2022-08-23T07:10:56.806Z,59.80
2022-08-23T07:12:01.697Z,60.00
2022-08-23T07:13:05.705Z,60.20
2022-08-23T07:14:13.025Z,60.20
2022-08-23T07:15:16.836Z,60.30
2022-08-23T07:16:21.654Z,60.20
2022-08-23T07:17:25.357Z,60.30
2022-08-23T07:18:29.500Z,60.00
2022-08-23T07:19:35.535Z,59.50
2022-08-23T07:20:40.290Z,59.40
2022-08-23T07:21:47.628Z,58.40
2022-08-23T07:22:52.307Z,57.80
2022-08-23T07:23:56.803Z,57.40
2022-08-23T07:25:00.611Z,56.60
2022-08-23T07:26:12.500Z,56.40
2022-08-23T07:27:16.747Z,56.30
2022-08-23T07:28:42.218Z,55.60
2022-08-23T07:29:46.168Z,54.80
2022-08-23T07:30:48.980Z,54.30
2022-08-23T07:31:57.122Z,54.00
2022-08-23T07:33:01.679Z,53.50
2022-08-23T07:34:11.416Z,53.40
2022-08-23T07:35:16.996Z,53.20
2022-08-23T07:36:44.594Z,53.40
2022-08-23T07:37:49.125Z,53.40
2022-08-23T07:38:53.259Z,53.60
2022-08-23T07:39:58.591Z,53.80
2022-08-23T07:41:03.633Z,54.10
2022-08-23T07:42:22.753Z,54.20
2022-08-23T07:43:34.211Z,54.30
2022-08-23T07:44:38.960Z,53.90
2022-08-23T07:45:43.482Z,53.50
2022-08-23T07:46:50.623Z,53.10
2022-08-23T07:47:57.565Z,52.70
2022-08-23T07:49:03.725Z,52.60
2022-08-23T07:50:13.772Z,52.20
2022-08-23T07:51:16.840Z,52.00
2022-08-23T07:52:20.978Z,51.80
2022-08-23T07:53:37.735Z,51.80
2022-08-23T07:54:48.402Z,51.80
2022-08-23T07:56:22.518Z,52.00
2022-08-23T07:57:52.440Z,52.20
2022-08-23T07:59:15.866Z,52.30
2022-08-23T08:00:48.954Z,52.30
2022-08-23T08:02:15.864Z,52.30
2022-08-23T08:03:20.669Z,52.20
2022-08-23T08:04:41.036Z,52.00
2022-08-23T08:05:46.910Z,51.60
2022-08-23T08:07:16.948Z,51.10
2022-08-23T08:08:20.006Z,50.60
2022-08-23T08:09:24.943Z,49.80
2022-08-23T08:10:28.540Z,49.70
2022-08-23T08:11:35.895Z,49.40
2022-08-23T08:12:39.820Z,49.40
2022-08-23T08:13:53.618Z,49.30
2022-08-23T08:14:57.527Z,49.50
2022-08-23T08:16:08.738Z,49.70
2022-08-23T08:17:18.152Z,49.70
2022-08-23T08:18:40.505Z,49.60
2022-08-23T08:20:03.304Z,49.60
2022-08-23T08:21:30.878Z,49.60
2022-08-23T08:22:45.411Z,49.70
2022-08-23T08:23:57.543Z,49.90
2022-08-23T08:25:34.252Z,50.00
2022-08-23T08:26:41.059Z,50.60
2022-08-23T08:27:45.640Z,50.70
2022-08-23T08:28:48.725Z,51.00
2022-08-23T08:29:52.929Z,51.20
2022-08-23T08:30:55.868Z,51.60
2022-08-23T08:31:59.785Z,52.00
2022-08-23T08:33:02.653Z,51.50
2022-08-23T08:34:08.917Z,51.60
2022-08-23T08:35:11.711Z,51.10
2022-08-23T08:36:35.322Z,50.60
2022-08-23T08:37:42.756Z,50.40
2022-08-23T08:38:50.297Z,49.40
2022-08-23T08:39:57.180Z,49.10
2022-08-23T08:41:14.713Z,48.50
2022-08-23T08:42:47.010Z,48.20
2022-08-23T08:44:04.685Z,47.30
2022-08-23T08:45:15.230Z,46.70
2022-08-23T08:46:26.015Z,46.30
2022-08-23T08:47:42.250Z,46.00
2022-08-23T08:48:52.336Z,45.80
2022-08-23T08:50:03.822Z,45.40
2022-08-23T08:51:30.043Z,45.10
2022-08-23T08:52:44.006Z,44.00
2022-08-23T08:53:56.968Z,43.50
2022-08-23T08:55:20.430Z,43.20
2022-08-23T08:56:32.723Z,42.90
2022-08-23T08:59:25.461Z,41.20
2022-08-23T09:00:33.615Z,40.90
2022-08-23T09:01:38.886Z,40.60
2022-08-23T09:02:45.180Z,40.70
2022-08-23T09:03:48.737Z,40.80
2022-08-23T09:04:55.475Z,40.50
2022-08-23T09:06:11.247Z,40.40
2022-08-23T09:07:31.265Z,39.80
2022-08-23T09:08:58.833Z,40.00
2022-08-23T09:10:42.825Z,39.80
2022-08-23T09:12:02.617Z,39.70
2022-08-23T09:13:57.577Z,39.90
2022-08-23T09:15:20.893Z,39.70
2022-08-23T09:16:51.010Z,39.80
2022-08-23T09:17:57.665Z,39.70
2022-08-23T09:19:03.978Z,39.90
2022-08-23T09:20:09.897Z,40.20
2022-08-23T09:21:14.906Z,40.30
2022-08-23T09:22:30.264Z,40.80
2022-08-23T09:23:42.446Z,40.90
2022-08-23T09:25:03.608Z,40.80
2022-08-23T09:26:24.265Z,41.30
2022-08-23T09:27:28.240Z,41.70
2022-08-23T09:28:38.980Z,41.70
2022-08-23T09:29:55.087Z,41.90
2022-08-23T09:31:01.068Z,41.90
2022-08-23T09:32:25.497Z,41.90
2022-08-23T09:33:40.608Z,41.50
2022-08-23T09:34:47.860Z,41.70
2022-08-23T09:36:16.125Z,40.60
2022-08-23T09:37:54.509Z,41.00
2022-08-23T09:39:02.529Z,39.50
2022-08-23T09:40:19.613Z,40.20
2022-08-23T09:42:39.553Z,39.60
2022-08-23T09:43:48.816Z,38.50
2022-08-23T09:44:56.442Z,38.10
2022-08-23T09:46:04.550Z,37.60
2022-08-23T09:47:15.227Z,37.60
2022-08-23T09:48:39.016Z,37.10
2022-08-23T09:49:48.406Z,37.40
2022-08-23T09:50:55.379Z,37.50
2022-08-23T09:52:10.199Z,37.40
2022-08-23T09:53:16.943Z,36.90
2022-08-23T09:55:35.816Z,36.80
2022-08-23T09:56:41.901Z,36.40
2022-08-23T09:57:49.692Z,36.30
2022-08-23T09:58:54.861Z,36.20
2022-08-23T10:00:24.767Z,35.10
2022-08-23T10:01:38.320Z,35.00
2022-08-23T10:02:47.417Z,35.10
2022-08-23T10:04:19.360Z,35.10
2022-08-23T10:05:37.196Z,35.20
2022-08-23T10:06:46.451Z,35.00
2022-08-23T10:08:00.014Z,35.40
2022-08-23T10:09:07.583Z,35.80
2022-08-23T10:10:29.812Z,35.70
2022-08-23T10:11:45.007Z,36.20
2022-08-23T10:12:48.385Z,36.60
2022-08-23T10:13:53.777Z,37.10
2022-08-23T10:14:56.327Z,38.30
2022-08-23T10:16:13.696Z,37.10
2022-08-23T10:17:38.110Z,37.30
2022-08-23T10:18:57.782Z,36.90
2022-08-23T10:20:18.213Z,37.40
2022-08-23T10:21:31.982Z,37.50
2022-08-23T10:22:44.704Z,37.60
2022-08-23T10:24:23.308Z,38.20
2022-08-23T10:25:36.759Z,37.00
2022-08-23T10:27:43.977Z,37.40
2022-08-23T10:29:17.099Z,36.90
2022-08-23T10:30:24.851Z,36.90
2022-08-23T10:31:39.041Z,36.90
2022-08-23T10:32:58.632Z,36.20
2022-08-23T10:34:29.934Z,36.20
2022-08-23T10:35:44.509Z,36.30
2022-08-23T10:37:02.219Z,36.10
2022-08-23T10:38:22.974Z,35.50
2022-08-23T10:39:31.968Z,35.90
2022-08-23T10:40:48.897Z,35.70
2022-08-23T10:42:02.136Z,35.70
2022-08-23T10:43:20.761Z,35.60
2022-08-23T10:44:30.520Z,34.50
2022-08-23T10:45:37.890Z,35.20
2022-08-23T10:47:13.961Z,35.80
2022-08-23T10:48:28.755Z,35.30
2022-08-23T10:49:36.598Z,34.60
2022-08-23T10:50:55.553Z,34.60
2022-08-23T10:52:04.951Z,34.90
2022-08-23T10:53:17.120Z,34.90
2022-08-23T10:54:35.381Z,35.00
2022-08-23T10:56:05.065Z,35.50
2022-08-23T10:57:21.875Z,35.30
2022-08-23T10:58:29.308Z,35.80
2022-08-23T10:59:38.859Z,36.30
2022-08-23T11:00:43.268Z,36.50
2022-08-23T11:02:02.261Z,36.40
2022-08-23T11:03:25.524Z,36.90
2022-08-23T11:04:45.573Z,35.90
2022-08-23T11:06:48.340Z,35.90
2022-08-23T11:08:01.438Z,36.70
2022-08-23T11:09:10.097Z,37.10
2022-08-23T11:10:26.271Z,37.50
2022-08-23T11:11:48.958Z,37.80
2022-08-23T11:12:58.091Z,38.20
2022-08-23T11:14:04.211Z,37.70
2022-08-23T11:15:19.675Z,38.70
2022-08-23T11:16:32.288Z,38.40
2022-08-23T11:17:55.281Z,38.60
2022-08-23T11:18:58.718Z,38.50
2022-08-23T11:20:15.447Z,38.70
2022-08-23T11:21:49.288Z,38.70
2022-08-23T11:23:15.949Z,38.90
2022-08-23T11:24:59.161Z,38.40
2022-08-23T11:26:07.209Z,38.70
2022-08-23T11:27:30.193Z,38.90
2022-08-23T11:28:47.445Z,39.00
2022-08-23T11:29:52.027Z,39.20
2022-08-23T11:31:25.119Z,39.30
2022-08-23T11:32:45.452Z,38.70
2022-08-23T11:34:02.512Z,38.70
2022-08-23T11:35:27.395Z,38.90
2022-08-23T11:36:36.291Z,38.60
2022-08-23T11:37:57.673Z,38.90
2022-08-23T11:39:19.555Z,38.80
2022-08-23T11:40:59.281Z,38.70
2022-08-23T11:42:09.145Z,38.70
2022-08-23T11:43:23.997Z,38.80
2022-08-23T11:44:36.693Z,38.70
2022-08-23T11:45:46.492Z,38.60
2022-08-23T11:47:05.045Z,38.80
2022-08-23T11:48:43.447Z,38.90
2022-08-23T11:50:19.555Z,38.40
2022-08-23T11:51:33.522Z,38.40
2022-08-23T11:53:15.293Z,38.30
2022-08-23T11:54:52.696Z,38.60
2022-08-23T11:56:31.476Z,38.20
2022-08-23T11:58:00.588Z,38.00
2022-08-23T11:59:41.585Z,37.70
2022-08-23T12:01:07.700Z,37.30
2022-08-23T12:03:02.049Z,37.60
2022-08-23T12:04:11.817Z,37.80
2022-08-23T12:05:32.910Z,37.00
2022-08-23T12:06:51.186Z,37.60
2022-08-23T12:08:33.792Z,37.20
2022-08-23T12:09:58.057Z,37.40
2022-08-23T12:11:07.828Z,37.70
2022-08-23T12:12:26.618Z,37.70
2022-08-23T12:14:01.194Z,37.70
2022-08-23T12:15:11.978Z,38.00
2022-08-23T12:16:49.654Z,38.20
2022-08-23T12:18:20.532Z,38.50
2022-08-23T12:19:39.920Z,38.40
2022-08-23T12:20:48.345Z,37.90
2022-08-23T12:21:55.344Z,38.00
2022-08-23T12:23:17.400Z,38.00
2022-08-23T12:24:29.908Z,38.30
2022-08-23T12:25:34.582Z,38.30
2022-08-23T12:26:50.779Z,38.30
2022-08-23T12:28:04.110Z,38.00
2022-08-23T12:29:19.279Z,37.90
2022-08-23T12:30:30.011Z,37.70
2022-08-23T12:31:41.311Z,37.70
2022-08-23T12:32:54.837Z,37.80
2022-08-23T12:34:26.246Z,38.00
2022-08-23T12:35:40.816Z,38.00
2022-08-23T12:36:55.751Z,38.20
2022-08-23T12:38:09.841Z,38.10
2022-08-23T12:39:25.625Z,38.20
2022-08-23T12:40:35.203Z,37.70
2022-08-23T12:41:56.617Z,37.60
2022-08-23T12:43:07.092Z,37.60
2022-08-23T12:44:11.868Z,37.90
2022-08-23T12:45:23.982Z,37.80
2022-08-23T12:46:37.981Z,37.90
2022-08-23T12:47:43.367Z,38.00
2022-08-23T12:48:47.265Z,38.30
2022-08-23T12:50:01.819Z,37.80
2022-08-23T12:51:14.372Z,37.80
2022-08-23T12:52:17.093Z,38.10
2022-08-23T12:53:32.035Z,38.00
2022-08-23T12:54:39.766Z,38.10
2022-08-23T12:55:48.970Z,38.40
2022-08-23T12:56:54.699Z,38.70
2022-08-23T12:57:59.524Z,38.90
2022-08-23T12:59:07.736Z,39.00
2022-08-23T13:00:23.012Z,39.40
2022-08-23T13:01:30.872Z,39.50
2022-08-23T13:02:37.281Z,39.10
2022-08-23T13:03:44.549Z,39.20
2022-08-23T13:04:48.495Z,39.70
2022-08-23T13:05:57.559Z,39.80
2022-08-23T13:07:10.949Z,39.60
2022-08-23T13:08:27.322Z,39.60
2022-08-23T13:09:42.104Z,39.50
2022-08-23T13:10:48.317Z,39.20
2022-08-23T13:11:52.447Z,39.00
2022-08-23T13:12:56.517Z,39.30
2022-08-23T13:14:01.422Z,39.20
2022-08-23T13:15:08.396Z,39.80
2022-08-23T13:16:33.331Z,40.00
2022-08-23T13:17:39.846Z,40.20
2022-08-23T13:18:45.910Z,40.20
2022-08-23T13:19:50.809Z,40.70
2022-08-23T13:21:28.262Z,40.70
2022-08-23T13:22:33.467Z,40.80
2022-08-23T13:23:36.061Z,41.10
2022-08-23T13:24:44.051Z,41.20
2022-08-23T13:25:47.847Z,41.50
2022-08-23T13:26:50.564Z,41.20
2022-08-23T13:27:58.639Z,41.00
2022-08-23T13:29:20.879Z,41.30
2022-08-23T13:30:27.884Z,41.40
2022-08-23T13:31:52.028Z,41.10
2022-08-23T13:33:21.684Z,41.20
2022-08-23T13:34:48.647Z,41.10
2022-08-23T13:36:13.046Z,41.40
2022-08-23T13:37:24.297Z,41.40
2022-08-23T13:38:33.723Z,41.70
2022-08-23T13:39:37.399Z,41.90
2022-08-23T13:40:48.679Z,41.90
2022-08-23T13:41:51.434Z,41.70
2022-08-23T13:43:01.966Z,41.90
2022-08-23T13:44:08.047Z,41.90
2022-08-23T13:45:16.353Z,41.80
2022-08-23T13:46:23.279Z,42.10
2022-08-23T13:47:29.546Z,41.80
2022-08-23T13:48:35.814Z,41.90
2022-08-23T13:49:38.590Z,42.20
2022-08-23T13:50:43.052Z,41.30
2022-08-23T13:52:41.555Z,40.90
2022-08-23T13:53:32.464Z,41.10
2022-08-23T13:54:40.041Z,41.00
2022-08-23T13:55:47.389Z,40.50
2022-08-23T13:56:54.336Z,41.00
2022-08-23T13:57:58.967Z,41.20
2022-08-23T13:59:08.054Z,41.30
2022-08-23T14:00:17.708Z,41.40
2022-08-23T14:01:22.261Z,41.50
2022-08-23T14:02:29.533Z,41.40
2022-08-23T14:03:32.955Z,41.60
2022-08-23T14:04:37.043Z,41.50
2022-08-23T14:05:40.808Z,41.60
2022-08-23T14:06:43.377Z,41.50
2022-08-23T14:07:53.649Z,41.70
2022-08-23T14:08:56.377Z,41.60
2022-08-23T14:10:01.110Z,41.60
2022-08-23T14:11:04.423Z,41.40
2022-08-23T14:12:14.025Z,41.70
2022-08-23T14:13:18.268Z,41.80
2022-08-23T14:14:22.262Z,41.40
2022-08-23T14:16:49.578Z,41.40
2022-08-23T14:17:56.648Z,41.40
2022-08-23T14:20:34.058Z,41.50
2022-08-23T14:21:47.978Z,41.60
2022-08-23T14:22:50.781Z,41.40
2022-08-23T14:23:54.678Z,41.50
2022-08-23T14:24:58.274Z,41.60
2022-08-23T14:26:00.852Z,42.00
2022-08-23T14:27:05.242Z,41.80
2022-08-23T14:28:07.777Z,42.20
2022-08-23T14:29:15.319Z,42.60
2022-08-23T14:30:29.298Z,42.60
2022-08-23T14:31:32.434Z,43.00
2022-08-23T14:32:38.731Z,43.40
2022-08-23T14:33:42.854Z,43.60
2022-08-23T14:34:46.634Z,43.50
2022-08-23T14:35:49.413Z,43.30
2022-08-23T14:38:18.462Z,42.90
2022-08-23T14:39:22.960Z,42.60
2022-08-23T14:40:25.660Z,42.70
2022-08-23T14:41:30.422Z,42.60
2022-08-23T14:42:33.894Z,43.00
2022-08-23T14:43:37.711Z,43.20
2022-08-23T14:44:40.478Z,43.30
2022-08-23T14:45:47.429Z,43.50
2022-08-23T14:46:50.985Z,43.60
2022-08-23T14:47:54.860Z,44.00
2022-08-23T14:48:59.126Z,44.70
2022-08-23T14:50:03.338Z,45.30
2022-08-23T14:51:06.099Z,45.50
2022-08-23T14:52:10.343Z,46.60
2022-08-23T14:53:19.077Z,47.00
2022-08-23T14:54:26.736Z,47.10
2022-08-23T14:55:30.340Z,47.10
2022-08-23T14:56:35.533Z,47.50
2022-08-23T14:57:39.653Z,47.70
2022-08-23T14:58:42.981Z,47.80
2022-08-23T14:59:46.769Z,47.70
2022-08-23T15:00:49.975Z,48.20
2022-08-23T15:01:54.918Z,48.40
2022-08-23T15:02:58.830Z,48.00
2022-08-23T15:04:03.991Z,48.50
2022-08-23T15:05:09.796Z,48.60
2022-08-23T15:06:14.133Z,48.70
2022-08-23T15:07:19.121Z,48.40
2022-08-23T15:08:23.876Z,48.80
2022-08-23T15:09:27.647Z,48.90
2022-08-23T15:13:27.130Z,49.10
2022-08-23T15:14:35.893Z,49.20
2022-08-23T15:15:39.649Z,49.20
2022-08-23T15:16:44.372Z,49.30
2022-08-23T15:17:52.326Z,49.20
2022-08-23T15:18:57.290Z,49.40
2022-08-23T15:20:02.285Z,49.60
2022-08-23T15:21:07.733Z,49.50